Time;durP1;ratioP1;P1;durP2;ratioP2;P2;SDS_P1;SDS_P2;PMS_P1;PMS_P2;Temp;Humidity;BMP_temperature;BMP_pressure;BME280_temperature;BME280_humidity;BME280_pressure;Samples;Min_cycle;Max_cycle;Signal;HPM_P1;HPM_P2
2022/04/03 00:00:55;;;;;;;;;;;6.40;81.40;;;;;;5037118;28;20398;-90
2022/04/03 00:03:20;;;;;;;;;;;6.40;81.50;;;;;;5037219;28;19956;-90
2022/04/03 00:05:46;;;;;;;;;;;6.40;81.50;;;;;;5054830;28;19975;-89
2022/04/03 00:08:15;;;;;;;;;;;6.40;81.50;;;;;;5037121;28;19931;-90
2022/04/03 00:10:41;;;;;;;;;;;6.40;81.50;;;;;;5054959;28;19909;-89
2022/04/03 00:13:07;;;;;;;;;;;6.40;81.60;;;;;;5054994;28;19991;-89
2022/04/03 00:15:33;;;;;;;;;;;6.40;81.80;;;;;;5054693;28;19913;-90
2022/04/03 00:17:58;;;;;;;;;;;6.50;82.00;;;;;;5054844;28;19999;-90
2022/04/03 00:20:24;;;;;;;;;;;6.60;82.10;;;;;;5054679;28;20401;-90
2022/04/03 00:22:50;;;;;;;;;;;6.60;82.10;;;;;;5054690;28;19913;-89
2022/04/03 00:25:18;;;;;;;;;;;6.60;81.80;;;;;;5036610;28;19913;-90
2022/04/03 00:27:44;;;;;;;;;;;6.70;81.70;;;;;;5036821;28;19951;-90
2022/04/03 00:30:10;;;;;;;;;;;6.60;81.60;;;;;;5036596;28;19959;-90
2022/04/03 00:32:35;;;;;;;;;;;6.60;81.60;;;;;;5036659;28;20311;-90
2022/04/03 00:35:02;;;;;;;;;;;6.60;81.60;;;;;;5054184;28;19913;-90
2022/04/03 00:37:28;;;;;;;;;;;6.60;81.60;;;;;;5054547;28;19909;-90
2022/04/03 00:39:53;;;;;;;;;;;6.60;81.60;;;;;;5054388;28;19915;-89
2022/04/03 00:42:19;;;;;;;;;;;6.60;81.60;;;;;;5054386;28;20559;-89
2022/04/03 00:44:45;;;;;;;;;;;6.60;81.50;;;;;;5054432;28;19913;-90
2022/04/03 00:47:12;;;;;;;;;;;6.60;81.40;;;;;;5054300;28;20285;-90
2022/04/03 00:49:38;;;;;;;;;;;6.50;81.40;;;;;;5054303;28;19941;-89
2022/04/03 00:52:04;;;;;;;;;;;6.60;81.40;;;;;;5054227;28;19915;-89
2022/04/03 00:54:29;;;;;;;;;;;6.50;81.50;;;;;;5053794;28;19909;-89
2022/04/03 00:56:55;;;;;;;;;;;6.50;81.60;;;;;;5054035;28;19936;-90
2022/04/03 00:59:21;;;;;;;;;;;6.40;81.70;;;;;;5054064;28;19909;-90
2022/04/03 01:01:47;;;;;;;;;;;6.50;81.70;;;;;;5053840;28;19974;-90
2022/04/03 01:04:13;;;;;;;;;;;6.40;81.50;;;;;;5053934;28;19909;-90
2022/04/03 01:06:39;;;;;;;;;;;6.40;81.60;;;;;;5053957;28;20337;-90
2022/04/03 01:09:04;;;;;;;;;;;6.50;81.40;;;;;;5053837;28;19909;-90
2022/04/03 01:11:30;;;;;;;;;;;6.40;81.30;;;;;;5053987;28;19996;-90
2022/04/03 01:13:56;;;;;;;;;;;6.40;81.20;;;;;;5053804;28;20260;-90
2022/04/03 01:16:21;;;;;;;;;;;6.50;81.10;;;;;;5053443;28;20271;-90
2022/04/03 01:18:47;;;;;;;;;;;6.40;80.90;;;;;;5053552;28;19912;-89
2022/04/03 01:21:13;;;;;;;;;;;6.50;80.80;;;;;;5035695;28;19920;-90
2022/04/03 01:23:39;;;;;;;;;;;6.40;80.70;;;;;;5053608;28;20405;-90
2022/04/03 01:26:05;;;;;;;;;;;6.50;80.90;;;;;;5053597;28;19912;-90
2022/04/03 01:28:31;;;;;;;;;;;6.50;80.90;;;;;;5053540;28;19909;-90
2022/04/03 01:30:56;;;;;;;;;;;6.50;80.60;;;;;;5053190;28;19909;-89
2022/04/03 01:33:22;;;;;;;;;;;6.50;80.50;;;;;;5053353;28;19991;-89
2022/04/03 01:35:47;;;;;;;;;;;6.50;80.50;;;;;;5053198;28;19912;-90
2022/04/03 01:38:13;;;;;;;;;;;6.50;80.40;;;;;;5053501;28;19908;-89
2022/04/03 01:40:38;;;;;;;;;;;6.50;80.40;;;;;;5053412;28;19967;-89
2022/04/03 01:43:06;;;;;;;;;;;6.50;80.20;;;;;;5053311;28;19913;-90
2022/04/03 01:45:35;;;;;;;;;;;6.50;80.20;;;;;;5053224;28;19909;-90
2022/04/03 01:48:01;;;;;;;;;;;6.50;80.20;;;;;;5053293;28;19908;-90
2022/04/03 01:50:27;;;;;;;;;;;6.50;80.10;;;;;;5053246;28;19963;-89
2022/04/03 01:52:53;;;;;;;;;;;6.50;80.10;;;;;;5035350;28;19909;-89
2022/04/03 01:55:18;;;;;;;;;;;6.50;80.10;;;;;;5053013;28;19917;-90
2022/04/03 01:57:44;;;;;;;;;;;6.50;80.10;;;;;;5035331;28;20279;-90
2022/04/03 02:00:10;;;;;;;;;;;6.40;80.10;;;;;;5061665;22;20294;-90
2022/04/03 02:02:36;;;;;;;;;;;6.40;80.00;;;;;;5013908;28;19925;-89
2022/04/03 02:05:02;;;;;;;;;;;6.50;80.00;;;;;;5034229;28;19979;-90
2022/04/03 02:07:29;;;;;;;;;;;6.40;79.90;;;;;;5015796;28;20323;-90
2022/04/03 02:09:54;;;;;;;;;;;6.40;79.90;;;;;;5033020;28;20006;-89
2022/04/03 02:12:20;;;;;;;;;;;6.40;79.80;;;;;;5033098;28;19960;-89
2022/04/03 02:14:45;;;;;;;;;;;6.40;79.80;;;;;;5015112;28;19920;-89
2022/04/03 02:17:11;;;;;;;;;;;6.40;79.80;;;;;;5033027;28;19910;-89
2022/04/03 02:19:36;;;;;;;;;;;6.40;79.80;;;;;;5033078;28;20427;-90
2022/04/03 02:22:02;;;;;;;;;;;6.40;79.90;;;;;;5032859;28;20383;-89
2022/04/03 02:24:27;;;;;;;;;;;6.40;80.10;;;;;;5032751;28;19913;-89
2022/04/03 02:26:54;;;;;;;;;;;6.40;80.30;;;;;;5033018;28;19932;-89
2022/04/03 02:29:19;;;;;;;;;;;6.40;80.30;;;;;;5032992;28;19913;-89
2022/04/03 02:31:45;;;;;;;;;;;6.40;80.50;;;;;;5015001;28;19913;-90
2022/04/03 02:34:10;;;;;;;;;;;6.40;80.60;;;;;;5032643;28;20405;-89
2022/04/03 02:36:36;;;;;;;;;;;6.40;80.80;;;;;;5032856;28;20423;-89
2022/04/03 02:39:02;;;;;;;;;;;6.40;80.70;;;;;;5032943;28;20339;-90
2022/04/03 02:41:28;;;;;;;;;;;6.40;80.60;;;;;;5032850;28;19956;-89
2022/04/03 02:43:53;;;;;;;;;;;6.40;80.40;;;;;;5033918;28;19963;-90
2022/04/03 02:46:19;;;;;;;;;;;6.40;80.20;;;;;;5036980;28;20325;-89
2022/04/03 02:48:44;;;;;;;;;;;6.40;80.30;;;;;;5018803;28;20367;-89
2022/04/03 02:51:10;;;;;;;;;;;6.40;80.50;;;;;;5036623;28;19920;-90
2022/04/03 02:53:35;;;;;;;;;;;6.40;80.50;;;;;;5036538;28;20414;-90
2022/04/03 02:56:01;;;;;;;;;;;6.40;79.90;;;;;;5036523;28;20387;-90
2022/04/03 02:58:27;;;;;;;;;;;6.50;79.50;;;;;;5018645;28;20283;-89
2022/04/03 03:00:52;;;;;;;;;;;6.40;79.30;;;;;;5035964;28;19917;-89
2022/04/03 03:03:18;;;;;;;;;;;6.40;79.10;;;;;;5036372;28;19913;-89
2022/04/03 03:05:45;;;;;;;;;;;6.50;78.80;;;;;;5036278;28;20283;-90
2022/04/03 03:08:10;;;;;;;;;;;6.50;78.40;;;;;;5036178;28;19979;-89
2022/04/03 03:10:36;;;;;;;;;;;6.50;78.20;;;;;;5035861;28;20334;-90
2022/04/03 03:13:02;;;;;;;;;;;6.50;78.10;;;;;;5036112;28;20395;-90
2022/04/03 03:15:28;;;;;;;;;;;6.50;77.90;;;;;;5036139;28;19913;-89
2022/04/03 03:17:54;;;;;;;;;;;6.50;77.80;;;;;;5036056;28;19921;-89
2022/04/03 03:20:21;;;;;;;;;;;6.50;78.00;;;;;;5036043;28;20418;-90
2022/04/03 03:22:46;;;;;;;;;;;6.50;78.30;;;;;;5035455;28;19968;-89
2022/04/03 03:25:12;;;;;;;;;;;6.50;78.60;;;;;;5035665;28;19983;-90
2022/04/03 03:27:39;;;;;;;;;;;6.40;78.80;;;;;;5035959;28;19909;-90
2022/04/03 03:30:05;;;;;;;;;;;6.40;79.00;;;;;;5035745;28;19945;-90
2022/04/03 03:32:30;;;;;;;;;;;6.30;79.10;;;;;;5035350;28;19968;-90
2022/04/03 03:34:56;;;;;;;;;;;6.30;79.50;;;;;;5035741;28;20334;-90
2022/04/03 03:37:22;;;;;;;;;;;6.30;79.60;;;;;;5035687;28;19916;-89
2022/04/03 03:39:48;;;;;;;;;;;6.30;79.50;;;;;;5035668;28;20292;-90
2022/04/03 03:42:13;;;;;;;;;;;6.30;79.60;;;;;;5035116;28;19917;-90
2022/04/03 03:44:39;;;;;;;;;;;6.20;79.90;;;;;;5018050;28;19924;-89
2022/04/03 03:47:05;;;;;;;;;;;6.20;79.60;;;;;;5035586;28;20394;-90
2022/04/03 03:49:31;;;;;;;;;;;6.10;79.50;;;;;;5035607;28;20368;-89
2022/04/03 03:51:56;;;;;;;;;;;6.20;79.70;;;;;;5017374;28;20260;-90
2022/04/03 03:54:22;;;;;;;;;;;6.20;79.90;;;;;;5017220;28;19917;-90
2022/04/03 03:56:48;;;;;;;;;;;6.20;79.90;;;;;;5035415;28;20387;-90
2022/04/03 03:59:14;;;;;;;;;;;6.20;79.90;;;;;;5035303;28;19909;-89
2022/04/03 04:01:40;;;;;;;;;;;6.30;79.50;;;;;;5034801;28;19943;-89
2022/04/03 04:04:06;;;;;;;;;;;6.30;79.20;;;;;;5035275;28;20379;-90
2022/04/03 04:06:31;;;;;;;;;;;6.30;79.00;;;;;;5035459;28;19941;-89
2022/04/03 04:08:57;;;;;;;;;;;6.20;78.90;;;;;;5035076;28;20343;-90
2022/04/03 04:11:22;;;;;;;;;;;6.20;79.00;;;;;;5034785;28;20391;-89
2022/04/03 04:13:48;;;;;;;;;;;6.20;79.10;;;;;;5035071;28;19913;-89
2022/04/03 04:16:14;;;;;;;;;;;6.20;79.10;;;;;;5017186;28;19909;-89
2022/04/03 04:18:39;;;;;;;;;;;6.10;79.20;;;;;;5034798;28;19920;-90
2022/04/03 04:21:05;;;;;;;;;;;6.10;79.30;;;;;;5034469;28;19910;-90
2022/04/03 04:23:31;;;;;;;;;;;6.10;79.30;;;;;;5017076;28;19920;-89
2022/04/03 04:25:57;;;;;;;;;;;6.10;79.50;;;;;;5034759;28;19916;-89
2022/04/03 04:28:23;;;;;;;;;;;6.10;79.50;;;;;;5034776;28;19909;-89
2022/04/03 04:30:48;;;;;;;;;;;6.10;79.50;;;;;;5034473;28;19913;-90
2022/04/03 04:33:14;;;;;;;;;;;6.00;79.40;;;;;;5034693;28;19987;-89
2022/04/03 04:35:39;;;;;;;;;;;5.90;79.70;;;;;;5034666;28;20423;-90
2022/04/03 04:38:05;;;;;;;;;;;5.70;79.90;;;;;;5034530;28;20426;-89
2022/04/03 04:40:31;;;;;;;;;;;5.70;80.30;;;;;;5034767;28;19913;-89
2022/04/03 04:42:57;;;;;;;;;;;5.50;80.60;;;;;;5034274;28;20012;-89
2022/04/03 04:45:23;;;;;;;;;;;5.50;80.90;;;;;;5034415;28;19960;-89
2022/04/03 04:47:48;;;;;;;;;;;5.50;80.90;;;;;;5034416;28;20284;-89
2022/04/03 04:50:15;;;;;;;;;;;5.60;81.00;;;;;;5034373;28;20351;-90
2022/04/03 04:52:41;;;;;;;;;;;5.60;80.70;;;;;;5034162;28;19917;-90
2022/04/03 04:55:07;;;;;;;;;;;5.60;80.30;;;;;;5034167;28;19948;-89
2022/04/03 04:57:33;;;;;;;;;;;5.60;80.20;;;;;;5033827;28;19931;-90
2022/04/03 04:59:59;;;;;;;;;;;5.70;80.20;;;;;;5016640;28;20419;-90
2022/04/03 05:02:24;;;;;;;;;;;5.70;80.10;;;;;;5033749;28;20399;-90
2022/04/03 05:04:51;;;;;;;;;;;5.80;79.80;;;;;;5034004;28;19935;-90
2022/04/03 05:07:16;;;;;;;;;;;5.90;79.90;;;;;;5033326;28;20004;-89
2022/04/03 05:09:42;;;;;;;;;;;5.90;80.10;;;;;;5033595;28;19959;-90
2022/04/03 05:12:08;;;;;;;;;;;5.90;80.10;;;;;;5033942;28;19909;-90
2022/04/03 05:14:34;;;;;;;;;;;5.90;80.30;;;;;;5033839;28;19995;-89
2022/04/03 05:16:59;;;;;;;;;;;6.00;80.60;;;;;;5033800;28;19913;-90
2022/04/03 05:19:26;;;;;;;;;;;6.10;80.50;;;;;;5033483;28;19917;-89
2022/04/03 05:21:51;;;;;;;;;;;6.10;80.40;;;;;;5033695;28;20011;-89
2022/04/03 05:24:17;;;;;;;;;;;6.20;80.20;;;;;;5033706;28;19998;-90
2022/04/03 05:26:42;;;;;;;;;;;6.20;80.40;;;;;;5033737;28;19909;-89
2022/04/03 05:29:08;;;;;;;;;;;6.20;80.60;;;;;;5033370;28;20526;-89
2022/04/03 05:31:34;;;;;;;;;;;6.20;80.80;;;;;;5033726;28;20326;-90
2022/04/03 05:33:59;;;;;;;;;;;6.20;81.00;;;;;;5033609;28;20428;-89
2022/04/03 05:36:25;;;;;;;;;;;6.20;81.10;;;;;;5033532;28;19913;-90
2022/04/03 05:38:50;;;;;;;;;;;6.20;81.00;;;;;;5033412;28;19935;-90
2022/04/03 05:41:16;;;;;;;;;;;6.30;80.90;;;;;;5033451;28;19914;-90
2022/04/03 05:43:42;;;;;;;;;;;6.40;80.90;;;;;;5033453;28;19909;-90
2022/04/03 05:46:07;;;;;;;;;;;6.40;81.10;;;;;;5033432;28;19958;-90
2022/04/03 05:48:33;;;;;;;;;;;6.50;81.20;;;;;;5015547;28;20386;-90
2022/04/03 05:50:58;;;;;;;;;;;6.60;81.30;;;;;;5033364;28;20425;-90
2022/04/03 05:53:24;;;;;;;;;;;6.70;81.20;;;;;;5033429;28;20047;-90
2022/04/03 05:55:49;;;;;;;;;;;6.80;81.20;;;;;;5033548;28;20007;-90
2022/04/03 05:58:15;;;;;;;;;;;6.90;80.80;;;;;;5033058;28;20010;-89
2022/04/03 06:00:41;;;;;;;;;;;7.00;80.90;;;;;;5033042;28;19918;-90
2022/04/03 06:03:06;;;;;;;;;;;7.10;80.80;;;;;;5033099;28;19917;-90
2022/04/03 06:05:35;;;;;;;;;;;7.00;81.10;;;;;;5033139;28;19916;-89
2022/04/03 06:08:01;;;;;;;;;;;7.00;82.50;;;;;;5033024;28;20030;-90
2022/04/03 06:10:27;;;;;;;;;;;7.10;83.10;;;;;;5033076;28;19909;-90
2022/04/03 06:12:52;;;;;;;;;;;7.30;82.60;;;;;;5033199;28;20004;-90
2022/04/03 06:15:18;;;;;;;;;;;7.40;81.90;;;;;;5033390;28;19909;-90
2022/04/03 06:17:43;;;;;;;;;;;7.50;81.10;;;;;;5034175;28;20038;-90
2022/04/03 06:20:09;;;;;;;;;;;7.70;80.90;;;;;;5037118;28;19921;-90
2022/04/03 06:22:35;;;;;;;;;;;7.80;80.40;;;;;;5037143;28;19939;-90
2022/04/03 06:25:00;;;;;;;;;;;8.00;79.60;;;;;;5036837;28;19913;-90
2022/04/03 06:27:27;;;;;;;;;;;8.20;79.50;;;;;;5019247;28;19909;-90
2022/04/03 06:29:53;;;;;;;;;;;8.30;78.90;;;;;;5037011;28;19974;-90
2022/04/03 06:32:19;;;;;;;;;;;8.40;77.80;;;;;;5036804;28;20371;-90
2022/04/03 06:34:44;;;;;;;;;;;8.50;77.00;;;;;;5019117;28;19909;-90
2022/04/03 06:37:10;;;;;;;;;;;8.70;76.20;;;;;;5037122;28;20256;-90
2022/04/03 06:39:36;;;;;;;;;;;8.80;75.60;;;;;;5036876;28;20398;-90
2022/04/03 06:42:02;;;;;;;;;;;8.90;74.80;;;;;;5018988;28;19968;-91
2022/04/03 06:44:29;;;;;;;;;;;9.00;74.40;;;;;;5019009;28;19909;-90
2022/04/03 06:46:55;;;;;;;;;;;9.10;73.80;;;;;;5018663;28;19951;-90
2022/04/03 06:49:21;;;;;;;;;;;9.30;73.40;;;;;;5036599;28;19996;-90
2022/04/03 06:51:47;;;;;;;;;;;9.40;72.20;;;;;;5036654;28;20060;-89
2022/04/03 06:54:12;;;;;;;;;;;9.50;72.10;;;;;;5036559;28;19917;-90
2022/04/03 06:56:38;;;;;;;;;;;9.50;70.60;;;;;;5036320;28;19921;-90
2022/04/03 06:59:03;;;;;;;;;;;9.60;69.00;;;;;;5036346;28;19909;-90
2022/04/03 07:01:29;;;;;;;;;;;9.60;68.60;;;;;;5036145;28;19940;-90
2022/04/03 07:03:55;;;;;;;;;;;9.70;68.50;;;;;;5036587;28;20020;-90
2022/04/03 07:06:20;;;;;;;;;;;9.80;69.20;;;;;;5035938;28;20371;-90
2022/04/03 07:08:48;;;;;;;;;;;9.90;67.10;;;;;;5036215;28;19910;-90
2022/04/03 07:11:14;;;;;;;;;;;9.90;67.40;;;;;;5036411;28;19909;-90
2022/04/03 07:13:40;;;;;;;;;;;10.00;67.50;;;;;;5036034;28;20008;-90
2022/04/03 07:16:05;;;;;;;;;;;10.10;66.50;;;;;;5036192;28;19937;-90
2022/04/03 07:18:31;;;;;;;;;;;10.10;65.80;;;;;;5036120;28;20286;-89
2022/04/03 07:20:57;;;;;;;;;;;10.10;65.60;;;;;;5036066;28;20352;-90
2022/04/03 07:23:24;;;;;;;;;;;10.10;64.40;;;;;;5018018;28;20335;-90
2022/04/03 07:25:50;;;;;;;;;;;10.00;64.50;;;;;;5018170;28;19928;-90
2022/04/03 07:28:15;;;;;;;;;;;10.10;65.20;;;;;;5035893;28;19963;-90
2022/04/03 07:30:42;;;;;;;;;;;10.20;65.40;;;;;;5035078;28;20367;-90
2022/04/03 07:33:07;;;;;;;;;;;10.10;64.20;;;;;;5035432;28;19913;-90
2022/04/03 07:35:33;;;;;;;;;;;10.10;63.90;;;;;;5035861;28;20371;-90
2022/04/03 07:37:58;;;;;;;;;;;10.10;64.40;;;;;;5035810;28;20398;-89
2022/04/03 07:40:25;;;;;;;;;;;10.10;64.80;;;;;;5035611;28;19909;-90
2022/04/03 07:42:52;;;;;;;;;;;10.10;64.70;;;;;;5035458;28;19917;-90
2022/04/03 07:45:18;;;;;;;;;;;10.20;63.60;;;;;;5035569;28;19909;-90
2022/04/03 07:47:47;;;;;;;;;;;10.10;63.50;;;;;;5035541;28;19996;-90
2022/04/03 07:50:12;;;;;;;;;;;10.20;62.50;;;;;;5035479;28;19910;-90
2022/04/03 07:52:38;;;;;;;;;;;10.20;62.30;;;;;;5035154;28;19967;-90
2022/04/03 07:55:04;;;;;;;;;;;10.30;62.70;;;;;;5035475;28;19955;-90
2022/04/03 07:57:29;;;;;;;;;;;10.20;63.50;;;;;;5035290;28;19923;-89
2022/04/03 07:59:55;;;;;;;;;;;10.20;61.30;;;;;;5017580;28;20495;-90
2022/04/03 08:02:20;;;;;;;;;;;10.20;61.20;;;;;;5034858;28;19941;-90
2022/04/03 08:04:46;;;;;;;;;;;10.20;62.40;;;;;;5035192;28;19909;-90
2022/04/03 08:07:12;;;;;;;;;;;10.20;60.60;;;;;;5035203;28;19916;-90
2022/04/03 08:09:38;;;;;;;;;;;10.20;59.00;;;;;;5035023;28;19924;-90
2022/04/03 08:12:04;;;;;;;;;;;10.30;58.30;;;;;;5034911;28;20003;-90
2022/04/03 08:14:31;;;;;;;;;;;10.30;57.00;;;;;;5034969;28;19990;-90
2022/04/03 08:16:56;;;;;;;;;;;10.40;59.20;;;;;;5035139;28;19909;-89
2022/04/03 08:19:22;;;;;;;;;;;10.40;59.20;;;;;;5035008;28;20000;-90
2022/04/03 08:21:47;;;;;;;;;;;10.50;57.80;;;;;;5034914;28;19920;-90
2022/04/03 08:24:13;;;;;;;;;;;10.60;58.10;;;;;;5017120;28;19920;-90
2022/04/03 08:26:38;;;;;;;;;;;10.70;59.60;;;;;;5034862;28;19909;-90
2022/04/03 08:29:04;;;;;;;;;;;10.60;59.30;;;;;;5034716;28;19909;-90
2022/04/03 08:31:30;;;;;;;;;;;10.70;59.10;;;;;;5034627;28;20004;-90
2022/04/03 08:33:55;;;;;;;;;;;10.80;59.90;;;;;;5034487;28;19945;-90
2022/04/03 08:36:21;;;;;;;;;;;10.80;59.50;;;;;;5034623;28;20008;-89
2022/04/03 08:38:46;;;;;;;;;;;10.80;58.40;;;;;;5034568;28;19955;-90
2022/04/03 08:41:12;;;;;;;;;;;10.80;58.00;;;;;;5033329;28;19909;-90
2022/04/03 08:43:40;;;;;;;;;;;10.70;59.10;;;;;;5034567;28;19909;-90
2022/04/03 08:46:06;;;;;;;;;;;10.80;60.30;;;;;;5034391;28;20445;-89
2022/04/03 08:48:32;;;;;;;;;;;10.80;59.00;;;;;;5034367;28;19909;-90
2022/04/03 08:51:00;;;;;;;;;;;10.70;58.90;;;;;;5034363;28;19963;-90
2022/04/03 08:53:26;;;;;;;;;;;10.70;59.20;;;;;;5034208;28;19913;-90
2022/04/03 08:55:52;;;;;;;;;;;10.70;58.00;;;;;;5034251;28;19909;-90
2022/04/03 08:58:18;;;;;;;;;;;10.60;56.90;;;;;;5034272;28;20007;-90
2022/04/03 09:00:44;;;;;;;;;;;10.70;58.70;;;;;;5034032;28;19925;-89
2022/04/03 09:03:10;;;;;;;;;;;10.80;57.50;;;;;;5033917;28;19988;-90
2022/04/03 09:05:37;;;;;;;;;;;10.90;56.30;;;;;;5034089;28;19916;-90
2022/04/03 09:08:03;;;;;;;;;;;10.90;55.70;;;;;;5033582;28;19916;-90
2022/04/03 09:10:29;;;;;;;;;;;10.90;53.10;;;;;;5033890;28;19910;-89
2022/04/03 09:12:54;;;;;;;;;;;10.80;52.20;;;;;;5033644;28;20353;-89
2022/04/03 09:15:21;;;;;;;;;;;10.80;53.80;;;;;;5033964;28;19968;-90
2022/04/03 09:17:49;;;;;;;;;;;10.80;54.70;;;;;;5033887;28;19947;-90
2022/04/03 09:20:16;;;;;;;;;;;10.90;51.20;;;;;;5033845;28;19909;-89
2022/04/03 09:22:42;;;;;;;;;;;11.00;50.80;;;;;;5033488;28;19919;-89
2022/04/03 09:25:12;;;;;;;;;;;11.10;54.90;;;;;;5033775;28;19909;-90
2022/04/03 09:27:55;;;;;;;;;;;11.20;52.80;;;;;;5033619;28;19909;-90
2022/04/03 09:30:22;;;;;;;;;;;11.30;50.90;;;;;;5033646;28;19916;-90
2022/04/03 09:32:57;;;;;;;;;;;11.40;51.50;;;;;;5033242;28;19917;-89
2022/04/03 09:35:28;;;;;;;;;;;11.20;50.00;;;;;;5015872;28;19952;-89
2022/04/03 09:38:05;;;;;;;;;;;11.20;52.20;;;;;;5033582;28;19959;-89
2022/04/03 09:40:32;;;;;;;;;;;11.20;49.50;;;;;;5034065;28;19959;-90
2022/04/03 09:43:11;;;;;;;;;;;11.20;53.10;;;;;;5033245;28;20011;-90
2022/04/03 09:45:42;;;;;;;;;;;11.40;55.10;;;;;;5033391;28;19916;-89
2022/04/03 09:48:18;;;;;;;;;;;11.30;53.80;;;;;;5033352;28;19910;-89
2022/04/03 09:51:02;;;;;;;;;;;11.10;50.90;;;;;;5033348;28;19944;-89
2022/04/03 09:53:29;;;;;;;;;;;11.10;54.80;;;;;;5032845;28;19909;-89
2022/04/03 09:55:54;;;;;;;;;;;11.30;55.50;;;;;;5033189;28;19913;-89
2022/04/03 09:58:20;;;;;;;;;;;11.30;50.40;;;;;;5033189;28;19918;-90
2022/04/03 10:00:46;;;;;;;;;;;11.30;53.40;;;;;;5040043;23;20338;-90
2022/04/03 10:03:13;;;;;;;;;;;11.60;54.60;;;;;;5046899;28;20460;-90
2022/04/03 10:05:40;;;;;;;;;;;11.80;54.00;;;;;;5053109;28;19936;-90
2022/04/03 10:08:06;;;;;;;;;;;12.00;52.00;;;;;;5053067;28;19958;-90
2022/04/03 10:10:33;;;;;;;;;;;12.10;51.70;;;;;;5036540;28;19955;-90
2022/04/03 10:12:59;;;;;;;;;;;12.00;49.60;;;;;;5033345;28;19920;-90
2022/04/03 10:15:25;;;;;;;;;;;12.10;52.40;;;;;;5033067;28;20337;-90
2022/04/03 10:17:51;;;;;;;;;;;12.20;51.00;;;;;;5040680;28;19915;-90
2022/04/03 10:20:17;;;;;;;;;;;12.20;48.60;;;;;;5052900;28;19912;-90
2022/04/03 10:22:45;;;;;;;;;;;12.30;48.80;;;;;;5052827;28;19913;-90
2022/04/03 10:25:14;;;;;;;;;;;12.40;50.50;;;;;;5052847;28;19915;-90
2022/04/03 10:27:40;;;;;;;;;;;12.60;55.30;;;;;;5046546;28;19909;-90
2022/04/03 10:30:06;;;;;;;;;;;12.80;51.90;;;;;;5032964;28;20011;-90
2022/04/03 10:32:34;;;;;;;;;;;12.90;50.70;;;;;;5032763;28;20005;-90
2022/04/03 10:35:03;;;;;;;;;;;12.70;47.60;;;;;;5032847;28;19909;-90
2022/04/03 10:37:28;;;;;;;;;;;12.50;47.40;;;;;;5037049;28;19916;-89
2022/04/03 10:39:54;;;;;;;;;;;12.40;48.10;;;;;;5052736;28;19913;-90
2022/04/03 10:42:27;;;;;;;;;;;12.60;50.20;;;;;;5034722;28;19999;-90
2022/04/03 10:45:11;;;;;;;;;;;12.70;50.00;;;;;;5052708;28;20425;-89
2022/04/03 10:47:36;;;;;;;;;;;12.80;49.40;;;;;;5051951;28;19948;-90
2022/04/03 10:50:03;;;;;;;;;;;12.70;46.80;;;;;;5052671;28;19959;-89
2022/04/03 10:52:38;;;;;;;;;;;12.40;49.70;;;;;;5052509;28;19909;-90
2022/04/03 10:55:15;;;;;;;;;;;12.30;50.80;;;;;;5035985;28;19910;-89
2022/04/03 10:57:44;;;;;;;;;;;12.40;49.10;;;;;;5037986;28;19916;-89
2022/04/03 11:00:10;;;;;;;;;;;12.40;48.60;;;;;;5034677;28;19920;-89
2022/04/03 11:02:35;;;;;;;;;;;12.40;51.70;;;;;;5052300;28;20357;-90
2022/04/03 11:05:20;;;;;;;;;;;12.60;49.00;;;;;;5035976;28;19913;-89
2022/04/03 11:07:45;;;;;;;;;;;12.60;48.90;;;;;;5050068;28;19940;-89
2022/04/03 11:10:11;;;;;;;;;;;12.60;50.90;;;;;;5036167;28;19924;-89
2022/04/03 11:12:43;;;;;;;;;;;12.70;50.90;;;;;;5036231;28;19995;-90
2022/04/03 11:15:12;;;;;;;;;;;12.80;48.80;;;;;;5036198;28;19909;-90
2022/04/03 11:17:43;;;;;;;;;;;12.90;50.60;;;;;;5040530;28;19916;-90
2022/04/03 11:20:09;;;;;;;;;;;12.90;50.60;;;;;;5055980;28;19912;-90
2022/04/03 11:22:35;;;;;;;;;;;13.00;49.60;;;;;;5056139;28;19967;-89
2022/04/03 11:25:01;;;;;;;;;;;12.80;47.40;;;;;;5055917;28;19912;-89
2022/04/03 11:27:27;;;;;;;;;;;12.10;50.70;;;;;;5052793;28;20053;-90
2022/04/03 11:29:52;;;;;;;;;;;12.20;52.00;;;;;;5035880;28;20322;-90
2022/04/03 11:32:19;;;;;;;;;;;12.40;51.30;;;;;;5035995;28;19953;-90
2022/04/03 11:34:55;;;;;;;;;;;12.40;50.60;;;;;;5035813;28;19909;-90
2022/04/03 11:37:20;;;;;;;;;;;12.50;51.60;;;;;;5037187;28;19945;-90
2022/04/03 11:39:47;;;;;;;;;;;12.70;51.30;;;;;;5047711;28;19964;-90
2022/04/03 11:42:13;;;;;;;;;;;12.90;50.60;;;;;;5017893;28;19963;-90
2022/04/03 11:44:41;;;;;;;;;;;13.00;50.10;;;;;;5035650;28;19914;-90
2022/04/03 11:47:17;;;;;;;;;;;12.80;48.80;;;;;;5035570;28;19932;-90
2022/04/03 11:49:44;;;;;;;;;;;12.70;47.60;;;;;;5035546;28;19932;-90
2022/04/03 11:52:10;;;;;;;;;;;12.50;47.90;;;;;;5035823;28;19988;-90
2022/04/03 11:54:37;;;;;;;;;;;12.40;49.80;;;;;;5017651;28;20327;-90
2022/04/03 11:57:04;;;;;;;;;;;12.30;49.20;;;;;;5035380;28;20282;-89
2022/04/03 11:59:34;;;;;;;;;;;12.20;48.70;;;;;;5054322;28;19924;-90
2022/04/03 12:02:07;;;;;;;;;;;12.00;49.30;;;;;;5055003;28;19963;-90
2022/04/03 12:04:36;;;;;;;;;;;12.00;47.70;;;;;;5055174;28;19916;-90
2022/04/03 12:07:03;;;;;;;;;;;11.90;49.50;;;;;;5055148;28;19915;-90
2022/04/03 12:09:28;;;;;;;;;;;11.80;49.40;;;;;;5036549;28;19999;-90
2022/04/03 12:11:54;;;;;;;;;;;11.60;48.70;;;;;;5035402;28;20370;-89
2022/04/03 12:14:24;;;;;;;;;;;11.50;50.30;;;;;;5035011;28;19920;-90
2022/04/03 12:16:54;;;;;;;;;;;11.40;52.60;;;;;;5035055;28;19913;-90
2022/04/03 12:19:20;;;;;;;;;;;11.30;51.50;;;;;;5034955;28;20036;-89
2022/04/03 12:21:51;;;;;;;;;;;11.20;50.80;;;;;;5034840;28;20286;-89
2022/04/03 12:24:17;;;;;;;;;;;11.10;51.30;;;;;;5034873;28;20047;-89
2022/04/03 12:26:44;;;;;;;;;;;10.90;49.70;;;;;;5053935;28;19913;-89
2022/04/03 12:29:10;;;;;;;;;;;10.70;53.90;;;;;;5054770;28;20306;-90
2022/04/03 12:31:36;;;;;;;;;;;10.40;58.80;;;;;;5036703;28;19991;-89
2022/04/03 12:34:05;;;;;;;;;;;10.00;60.80;;;;;;5054850;28;19909;-89
2022/04/03 12:36:41;;;;;;;;;;;9.90;62.90;;;;;;5037006;28;19917;-89
2022/04/03 12:39:25;;;;;;;;;;;9.60;62.40;;;;;;5016953;28;20003;-89
2022/04/03 12:41:51;;;;;;;;;;;9.50;65.40;;;;;;5034447;28;19944;-89
2022/04/03 12:44:17;;;;;;;;;;;9.50;64.40;;;;;;5034483;28;20028;-89
2022/04/03 12:46:44;;;;;;;;;;;9.40;64.80;;;;;;5034808;28;19920;-89
2022/04/03 12:49:15;;;;;;;;;;;9.40;63.70;;;;;;5034390;28;19913;-90
2022/04/03 12:51:44;;;;;;;;;;;9.40;66.20;;;;;;5034262;28;19913;-90
2022/04/03 12:54:10;;;;;;;;;;;9.40;65.10;;;;;;5034299;28;19913;-89
2022/04/03 12:59:20;;;;;;;;;;;9.50;66.60;;;;;;5054205;28;20389;-89
2022/04/03 13:01:50;;;;;;;;;;;9.60;65.90;;;;;;5035968;28;19967;-89
2022/04/03 13:04:31;;;;;;;;;;;9.70;68.40;;;;;;5054043;28;19909;-89
2022/04/03 13:06:57;;;;;;;;;;;9.80;68.20;;;;;;5048960;28;20008;-89
2022/04/03 13:09:22;;;;;;;;;;;9.70;67.80;;;;;;5053865;28;20339;-89
2022/04/03 13:11:49;;;;;;;;;;;9.60;68.10;;;;;;5053903;28;19909;-89
2022/04/03 13:14:22;;;;;;;;;;;9.60;68.50;;;;;;5053891;28;19915;-89
2022/04/03 13:16:48;;;;;;;;;;;9.60;69.10;;;;;;5034760;28;19914;-90
2022/04/03 13:19:15;;;;;;;;;;;9.50;69.90;;;;;;5033794;28;19912;-90
2022/04/03 13:21:41;;;;;;;;;;;9.70;71.10;;;;;;5033708;28;20379;-89
2022/04/03 13:24:08;;;;;;;;;;;10.00;70.10;;;;;;5033779;28;20367;-90
2022/04/03 13:26:34;;;;;;;;;;;10.50;70.00;;;;;;5034250;28;19913;-90
2022/04/03 13:28:59;;;;;;;;;;;11.00;67.50;;;;;;5033391;28;19916;-90
2022/04/03 13:31:25;;;;;;;;;;;11.30;65.80;;;;;;5033497;28;19916;-89
2022/04/03 13:33:51;;;;;;;;;;;11.30;65.90;;;;;;5015826;28;20071;-90
2022/04/03 13:36:17;;;;;;;;;;;11.30;64.40;;;;;;5047367;28;20321;-89
2022/04/03 13:38:42;;;;;;;;;;;11.40;62.90;;;;;;5053423;28;19909;-89
2022/04/03 13:41:08;;;;;;;;;;;11.40;63.00;;;;;;5035605;28;20278;-90
2022/04/03 13:43:33;;;;;;;;;;;11.70;63.80;;;;;;5053363;28;20553;-90
2022/04/03 13:46:02;;;;;;;;;;;12.40;61.40;;;;;;5041758;28;19913;-89
2022/04/03 13:48:32;;;;;;;;;;;13.10;58.50;;;;;;5033377;28;19909;-90
2022/04/03 13:50:58;;;;;;;;;;;13.80;56.90;;;;;;5033401;28;19909;-90
2022/04/03 13:53:23;;;;;;;;;;;14.20;55.00;;;;;;5033329;28;19909;-90
2022/04/03 13:55:49;;;;;;;;;;;14.40;53.60;;;;;;5047119;28;20003;-90
2022/04/03 13:58:15;;;;;;;;;;;14.20;52.90;;;;;;5053167;28;19987;-90
2022/04/03 14:00:41;;;;;;;;;;;14.20;53.20;;;;;;5052972;28;19967;-90
2022/04/03 14:03:06;;;;;;;;;;;14.00;52.70;;;;;;5035281;28;19921;-90
2022/04/03 14:05:32;;;;;;;;;;;13.90;52.00;;;;;;5052419;28;19908;-90
2022/04/03 14:07:57;;;;;;;;;;;13.50;53.60;;;;;;5053041;28;19909;-90
2022/04/03 14:10:23;;;;;;;;;;;13.50;53.30;;;;;;5053017;28;19912;-90
2022/04/03 14:12:49;;;;;;;;;;;13.70;53.50;;;;;;5052939;28;19909;-90
2022/04/03 14:15:14;;;;;;;;;;;14.00;52.30;;;;;;5043687;28;20363;-90
2022/04/03 14:17:40;;;;;;;;;;;14.40;51.40;;;;;;5033088;28;20375;-90
2022/04/03 14:20:08;;;;;;;;;;;14.90;50.50;;;;;;5015299;28;19949;-90
2022/04/03 14:22:34;;;;;;;;;;;15.50;48.70;;;;;;5032907;28;19913;-90